Accueil
METAR-TAF:

METAR-TAF

Aéroports :

Hugoton, Kansas, États-Unis

latitude: 37-09-47N, longitude: 101-22-14W, altitude: 955 m

Observation

Le bulletin a été fait il y a 34 minutes, à 04:55 UTC
Vent 22 kt de est/nord-est
Température 16°C
Humidité 88%
Pression 1016 hPa
Visibilité: 4.0 km
Nuages épars à une hauteur de 900 ft
Nuages fragmentés à une hauteur de 1300 ft
Ciel couvert à une hauteur de 4600 ft

METAR: KHQG 200455Z AUTO 07022KT 2 1/2SM +VCTSRA SCT009 BKN013 OVC046 16/14 A2999 RMK AO2 VIS 1 1/2V3 LTG DSNT ALQS P0031 T01600143

Heure: 00:29 (05:29 UTC)


TAF: absent

Observations et prévisions météorologiques de plus de 4000 aéroports (messages METAR et TAF).

Les stations disponibles sont représentées par des disques jaunes et rouges sur la carte.

Passer la souris dessus pour voir le nom de la station.

Cliquer dessus pour voir les observations et prévisions météorologiques.

Pour changer de carte: cliquez sur les boutons verts avec une croix noire pour zoomer, sur le bouton vert avec un tiret pour effectuer un zoom arrière, ou sur les flèches vertes pour les cartes adjacentes.


METAR-TAF: